MET'MAP v2.0
soon released !

Expected late october,
this new version will be
more efficient, smarter,
and hosted on a brand new
server x3 powerfull...
...and still free !


Not compatible ?
Try the mobile version !

LOG IN : | Subscribe | Disclaimer | Who is Orbifly ? |
ICAO code :

TAF - LIMS San Damiano Air Base Piacenza - 06 Dec 2019 11:53 UTC
Data Sources :     NOAA   


- Airport Elevation : 456 ft
- IATA code : QPZ
- No reported NOTAMs.


LIMS - San Damiano Air Base Piacenza

Latest METAR recorded : 2015/08/11 07:55 LIMS 110755Z 27003KT CAVOK 25/21 Q1013 RMK SCT SCT200 VIS MIN 9999 WIND THR30 27003KT BLU
Expired Forecast.

Source NOAA


MET'MAP, your aeronautical weather chart ! - Copyright ORBIFLY December 2007

Programming & Development : Alexandra Zaïnal
Co-Developer : Marc-Olivier Méhu
Technical & hardware support : Manuel Goepfert
Concept & Financing : Baudouin d'Aumeries